OAS030 SKRG-KMIA
Flight info
| Callsign | OAS030 |
|---|---|
| Flight time | N/A |
| Altitude | 36000 |
| Route | BUTAL3A BUTAL UP778 CTG UM779 ZEUSS VIICE2 |
| Aircraft | B738/M-SDE2E3FGHIJ1RWXYZ/LB2 |
Departure
| Time | N/A |
|---|---|
| Airport | Jose Maria Córdova International Airport (SKRG) |
Arrival
| Time | 2026-05-05 20:33 |
|---|---|
| Airport | Miami International Airport (KMIA) |
| Time | Latitude | Longitude | Altitude | Speed | Heading |
|---|---|---|---|---|---|
| 2026-05-05 19:30 | 21.07843 | -78.24936 | 35992 ft | 391 kts | 347° |
| 2026-05-05 19:30 | 21.10531 | -78.25427 | 35987 ft | 389 kts | 347° |
| 2026-05-05 19:31 | 21.15914 | -78.26411 | 35981 ft | 390 kts | 347° |
| 2026-05-05 19:31 | 21.21342 | -78.27406 | 35991 ft | 389 kts | 347° |
| 2026-05-05 19:32 | 21.26339 | -78.28323 | 35996 ft | 387 kts | 347° |
| 2026-05-05 19:32 | 21.31678 | -78.29308 | 35997 ft | 387 kts | 347° |
| 2026-05-05 19:33 | 21.37002 | -78.30286 | 35997 ft | 387 kts | 347° |
| 2026-05-05 19:33 | 21.42339 | -78.31269 | 35996 ft | 387 kts | 347° |
| 2026-05-05 19:34 | 21.47671 | -78.32250 | 35996 ft | 385 kts | 347° |
| 2026-05-05 19:35 | 21.55682 | -78.33724 | 35994 ft | 386 kts | 347° |
| 2026-05-05 19:35 | 21.61011 | -78.34708 | 35994 ft | 385 kts | 347° |
| 2026-05-05 19:36 | 21.66310 | -78.35690 | 35994 ft | 384 kts | 347° |
| 2026-05-05 19:36 | 21.71545 | -78.36659 | 35995 ft | 385 kts | 347° |
| 2026-05-05 19:37 | 21.76858 | -78.37642 | 35993 ft | 385 kts | 347° |
| 2026-05-05 19:37 | 21.82049 | -78.38598 | 35987 ft | 384 kts | 347° |
| 2026-05-05 19:38 | 21.86381 | -78.39396 | 35988 ft | 383 kts | 347° |
| 2026-05-05 19:38 | 21.93187 | -78.40657 | 35980 ft | 383 kts | 347° |
| 2026-05-05 19:39 | 21.98462 | -78.41639 | 35974 ft | 382 kts | 347° |
| 2026-05-05 19:39 | 22.03643 | -78.42600 | 35978 ft | 381 kts | 347° |
| 2026-05-05 19:40 | 22.08917 | -78.43582 | 35972 ft | 383 kts | 347° |
| 2026-05-05 19:40 | 22.13318 | -78.44400 | 35976 ft | 382 kts | 347° |
| 2026-05-05 19:41 | 22.18501 | -78.45363 | 35975 ft | 380 kts | 347° |
| 2026-05-05 19:41 | 22.24481 | -78.46474 | 35977 ft | 381 kts | 347° |
| 2026-05-05 19:42 | 22.28971 | -78.47312 | 35979 ft | 382 kts | 347° |
| 2026-05-05 19:42 | 22.33402 | -78.48137 | 35977 ft | 379 kts | 347° |
| 2026-05-05 19:43 | 22.39469 | -78.49267 | 35982 ft | 380 kts | 347° |
| 2026-05-05 19:43 | 22.44712 | -78.50246 | 35980 ft | 380 kts | 347° |
| 2026-05-05 19:44 | 22.49899 | -78.51216 | 35981 ft | 378 kts | 347° |
| 2026-05-05 19:44 | 22.55103 | -78.52192 | 35980 ft | 378 kts | 347° |
| 2026-05-05 19:45 | 22.60326 | -78.53168 | 35980 ft | 378 kts | 347° |
| 2026-05-05 19:45 | 22.65550 | -78.54148 | 35986 ft | 378 kts | 347° |
| 2026-05-05 19:46 | 22.70759 | -78.55122 | 35989 ft | 376 kts | 347° |
| 2026-05-05 19:46 | 22.75952 | -78.56094 | 35989 ft | 375 kts | 347° |
| 2026-05-05 19:47 | 22.81149 | -78.57072 | 35986 ft | 377 kts | 347° |
| 2026-05-05 19:47 | 22.86367 | -78.58054 | 35987 ft | 375 kts | 347° |
| 2026-05-05 19:48 | 22.91496 | -78.59019 | 35989 ft | 374 kts | 347° |
| 2026-05-05 19:48 | 22.96617 | -78.59983 | 35987 ft | 375 kts | 347° |
| 2026-05-05 19:49 | 23.01755 | -78.60951 | 35990 ft | 374 kts | 347° |
| 2026-05-05 19:49 | 23.06934 | -78.61926 | 35989 ft | 375 kts | 347° |
| 2026-05-05 19:50 | 23.12087 | -78.62897 | 35989 ft | 373 kts | 346° |
| 2026-05-05 19:50 | 23.17148 | -78.63852 | 35988 ft | 373 kts | 347° |
| 2026-05-05 19:51 | 23.22300 | -78.64822 | 35986 ft | 373 kts | 347° |
| 2026-05-05 19:51 | 23.27383 | -78.65783 | 35990 ft | 373 kts | 347° |
| 2026-05-05 19:52 | 23.32529 | -78.66755 | 35988 ft | 373 kts | 346° |
| 2026-05-05 19:52 | 23.37705 | -78.67736 | 35987 ft | 373 kts | 347° |
| 2026-05-05 19:53 | 23.42865 | -78.68716 | 35990 ft | 372 kts | 346° |
| 2026-05-05 19:53 | 23.47979 | -78.69686 | 35987 ft | 371 kts | 346° |
| 2026-05-05 19:54 | 23.53111 | -78.70658 | 35990 ft | 373 kts | 346° |
| 2026-05-05 19:54 | 23.58238 | -78.71632 | 35988 ft | 371 kts | 346° |
| 2026-05-05 19:55 | 23.63361 | -78.72604 | 35990 ft | 371 kts | 346° |
| 2026-05-05 19:55 | 23.68475 | -78.73578 | 35986 ft | 371 kts | 346° |
| 2026-05-05 19:56 | 23.73553 | -78.74548 | 35988 ft | 370 kts | 346° |
| 2026-05-05 19:56 | 23.78674 | -78.75525 | 35987 ft | 370 kts | 346° |
| 2026-05-05 19:57 | 23.83776 | -78.76496 | 35988 ft | 370 kts | 346° |
| 2026-05-05 19:57 | 23.88879 | -78.77470 | 35989 ft | 370 kts | 346° |
| 2026-05-05 19:58 | 23.93938 | -78.78437 | 35987 ft | 370 kts | 346° |
| 2026-05-05 19:58 | 23.98996 | -78.79602 | 35988 ft | 367 kts | 340° |
| 2026-05-05 19:59 | 24.03633 | -78.81878 | 35988 ft | 364 kts | 329° |
| 2026-05-05 19:59 | 24.07970 | -78.84739 | 35987 ft | 364 kts | 328° |
| 2026-05-05 20:00 | 24.12308 | -78.87670 | 35987 ft | 365 kts | 328° |
| 2026-05-05 20:00 | 24.16642 | -78.90565 | 35987 ft | 364 kts | 328° |
| 2026-05-05 20:01 | 24.20295 | -78.92992 | 35987 ft | 363 kts | 328° |
| 2026-05-05 20:01 | 24.22632 | -78.94542 | 35987 ft | 362 kts | 328° |
| 2026-05-05 20:02 | 24.27741 | -78.97926 | 35988 ft | 362 kts | 328° |
| 2026-05-05 20:02 | 24.33201 | -79.01548 | 35987 ft | 362 kts | 328° |
| 2026-05-05 20:03 | 24.37513 | -79.04415 | 35988 ft | 361 kts | 328° |
| 2026-05-05 20:03 | 24.41538 | -79.07094 | 35989 ft | 362 kts | 328° |
| 2026-05-05 20:04 | 24.46111 | -79.10135 | 35839 ft | 359 kts | 328° |
| 2026-05-05 20:04 | 24.48217 | -79.11538 | 35462 ft | 353 kts | 328° |
| 2026-05-05 20:04 | 24.50322 | -79.12942 | 34947 ft | 353 kts | 328° |
| 2026-05-05 20:04 | 24.52428 | -79.14345 | 34541 ft | 355 kts | 328° |
| 2026-05-05 20:05 | 24.54571 | -79.15771 | 34113 ft | 361 kts | 328° |
| 2026-05-05 20:05 | 24.56700 | -79.17191 | 33666 ft | 358 kts | 328° |
| 2026-05-05 20:05 | 24.58829 | -79.18609 | 33218 ft | 353 kts | 328° |
| 2026-05-05 20:05 | 24.60903 | -79.19994 | 32804 ft | 347 kts | 327° |
| 2026-05-05 20:06 | 24.62937 | -79.21352 | 32378 ft | 343 kts | 327° |
| 2026-05-05 20:06 | 24.64967 | -79.22707 | 31953 ft | 344 kts | 327° |
| 2026-05-05 20:06 | 24.67061 | -79.24109 | 31512 ft | 352 kts | 327° |
| 2026-05-05 20:06 | 24.69149 | -79.25507 | 31065 ft | 351 kts | 327° |
| 2026-05-05 20:07 | 24.71240 | -79.26904 | 30616 ft | 347 kts | 326° |
| 2026-05-05 20:07 | 24.73280 | -79.28267 | 30183 ft | 343 kts | 326° |
| 2026-05-05 20:07 | 24.75304 | -79.29620 | 29754 ft | 340 kts | 326° |
| 2026-05-05 20:07 | 24.77356 | -79.30996 | 29314 ft | 344 kts | 326° |
| 2026-05-05 20:08 | 24.79410 | -79.32376 | 28870 ft | 348 kts | 325° |
| 2026-05-05 20:08 | 24.81471 | -79.33757 | 28427 ft | 345 kts | 325° |
| 2026-05-05 20:08 | 24.83511 | -79.35123 | 27990 ft | 341 kts | 326° |
| 2026-05-05 20:08 | 24.85534 | -79.36475 | 27554 ft | 337 kts | 326° |
| 2026-05-05 20:09 | 24.87465 | -79.37768 | 27136 ft | 333 kts | 325° |
| 2026-05-05 20:09 | 24.89464 | -79.39106 | 26704 ft | 330 kts | 325° |
| 2026-05-05 20:09 | 24.91428 | -79.40423 | 26281 ft | 326 kts | 325° |
| 2026-05-05 20:09 | 24.93362 | -79.41722 | 25864 ft | 328 kts | 325° |
| 2026-05-05 20:10 | 24.95329 | -79.43049 | 25441 ft | 333 kts | 325° |
| 2026-05-05 20:10 | 24.97300 | -79.44376 | 25011 ft | 332 kts | 325° |
| 2026-05-05 20:10 | 24.99266 | -79.45697 | 24585 ft | 328 kts | 325° |
| 2026-05-05 20:10 | 25.01191 | -79.46989 | 24166 ft | 324 kts | 325° |
| 2026-05-05 20:11 | 25.03101 | -79.48272 | 23753 ft | 320 kts | 325° |
| 2026-05-05 20:11 | 25.05007 | -79.49553 | 23346 ft | 317 kts | 325° |
| 2026-05-05 20:11 | 25.06877 | -79.50813 | 22941 ft | 316 kts | 325° |
| 2026-05-05 20:11 | 25.08780 | -79.52099 | 22574 ft | 328 kts | 325° |
| 2026-05-05 20:12 | 25.10795 | -79.53466 | 22334 ft | 353 kts | 325° |
| 2026-05-05 20:12 | 25.12944 | -79.54920 | 22100 ft | 362 kts | 325° |
| 2026-05-05 20:12 | 25.15109 | -79.56379 | 21841 ft | 363 kts | 325° |
| 2026-05-05 20:12 | 25.17246 | -79.57816 | 21459 ft | 358 kts | 326° |
| 2026-05-05 20:13 | 25.19392 | -79.59257 | 20954 ft | 354 kts | 326° |
| 2026-05-05 20:13 | 25.21473 | -79.60659 | 20433 ft | 352 kts | 326° |
| 2026-05-05 20:13 | 25.22893 | -79.61616 | 20071 ft | 351 kts | 326° |
| 2026-05-05 20:13 | 25.24776 | -79.62887 | 19590 ft | 349 kts | 326° |
| 2026-05-05 20:14 | 25.26842 | -79.64281 | 19070 ft | 347 kts | 327° |
| 2026-05-05 20:14 | 25.28911 | -79.65679 | 18542 ft | 345 kts | 326° |
| 2026-05-05 20:14 | 25.30812 | -79.66966 | 18051 ft | 343 kts | 326° |
| 2026-05-05 20:14 | 25.32845 | -79.68342 | 17516 ft | 342 kts | 327° |
| 2026-05-05 20:15 | 25.34786 | -79.69656 | 17008 ft | 341 kts | 327° |
| 2026-05-05 20:15 | 25.36769 | -79.71034 | 16493 ft | 339 kts | 324° |
| 2026-05-05 20:15 | 25.38636 | -79.72620 | 16050 ft | 333 kts | 316° |
| 2026-05-05 20:15 | 25.39887 | -79.74065 | 15976 ft | 332 kts | 309° |
| 2026-05-05 20:16 | 25.40481 | -79.74860 | 15968 ft | 336 kts | 308° |
| 2026-05-05 20:16 | 25.40868 | -79.75406 | 15970 ft | 337 kts | 307° |
| 2026-05-05 20:16 | 25.41542 | -79.76399 | 15968 ft | 337 kts | 306° |
| 2026-05-05 20:17 | 25.44339 | -79.80835 | 15425 ft | 330 kts | 304° |
| 2026-05-05 20:17 | 25.48333 | -79.87170 | 13999 ft | 322 kts | 304° |
| 2026-05-05 20:17 | 25.50074 | -79.89888 | 13506 ft | 317 kts | 304° |
| 2026-05-05 20:18 | 25.51437 | -79.92015 | 13003 ft | 325 kts | 304° |
| 2026-05-05 20:18 | 25.52748 | -79.94064 | 12490 ft | 325 kts | 304° |
| 2026-05-05 20:18 | 25.54050 | -79.96098 | 11969 ft | 324 kts | 304° |
| 2026-05-05 20:18 | 25.55350 | -79.98128 | 11506 ft | 321 kts | 304° |
| 2026-05-05 20:19 | 25.56610 | -80.00098 | 11239 ft | 312 kts | 304° |
| 2026-05-05 20:19 | 25.57794 | -80.01950 | 11120 ft | 299 kts | 303° |
| 2026-05-05 20:19 | 25.59019 | -80.03865 | 10913 ft | 289 kts | 303° |
| 2026-05-05 20:19 | 25.60172 | -80.05674 | 10499 ft | 288 kts | 303° |
| 2026-05-05 20:20 | 25.61326 | -80.07489 | 10077 ft | 286 kts | 303° |
| 2026-05-05 20:20 | 25.62446 | -80.09252 | 9901 ft | 276 kts | 303° |
| 2026-05-05 20:20 | 25.63546 | -80.10984 | 9591 ft | 272 kts | 303° |
| 2026-05-05 20:20 | 25.64633 | -80.12695 | 9216 ft | 271 kts | 303° |
| 2026-05-05 20:21 | 25.65643 | -80.14435 | 8993 ft | 264 kts | 297° |
| 2026-05-05 20:21 | 25.66460 | -80.16239 | 8987 ft | 262 kts | 294° |
| 2026-05-05 20:21 | 25.67229 | -80.18104 | 8850 ft | 265 kts | 294° |
| 2026-05-05 20:21 | 25.67987 | -80.19951 | 8608 ft | 264 kts | 294° |
| 2026-05-05 20:22 | 25.68758 | -80.21801 | 8369 ft | 261 kts | 294° |
| 2026-05-05 20:22 | 25.69516 | -80.23603 | 8130 ft | 260 kts | 294° |
| 2026-05-05 20:22 | 25.70288 | -80.25424 | 7954 ft | 260 kts | 294° |
| 2026-05-05 20:22 | 25.71004 | -80.27245 | 7665 ft | 258 kts | 289° |
| 2026-05-05 20:23 | 25.71315 | -80.29197 | 7344 ft | 256 kts | 271° |
| 2026-05-05 20:23 | 25.71206 | -80.31157 | 7023 ft | 255 kts | 265° |
| 2026-05-05 20:23 | 25.71034 | -80.33131 | 6696 ft | 254 kts | 266° |
| 2026-05-05 20:23 | 25.70898 | -80.35028 | 6387 ft | 253 kts | 268° |
| 2026-05-05 20:24 | 25.70787 | -80.36998 | 6065 ft | 257 kts | 268° |
| 2026-05-05 20:24 | 25.70660 | -80.38985 | 5737 ft | 259 kts | 267° |
| 2026-05-05 20:24 | 25.70515 | -80.40992 | 5403 ft | 258 kts | 266° |
| 2026-05-05 20:24 | 25.70367 | -80.42954 | 5080 ft | 257 kts | 267° |
| 2026-05-05 20:25 | 25.70220 | -80.44940 | 4971 ft | 254 kts | 267° |
| 2026-05-05 20:25 | 25.70075 | -80.46872 | 4916 ft | 250 kts | 267° |
| 2026-05-05 20:25 | 25.69928 | -80.48814 | 4822 ft | 254 kts | 266° |
| 2026-05-05 20:25 | 25.69784 | -80.50784 | 4728 ft | 256 kts | 267° |
| 2026-05-05 20:26 | 25.69642 | -80.52738 | 4542 ft | 250 kts | 266° |
| 2026-05-05 20:26 | 25.69510 | -80.54638 | 4261 ft | 249 kts | 267° |
| 2026-05-05 20:26 | 25.69690 | -80.56567 | 4029 ft | 253 kts | 293° |
| 2026-05-05 20:26 | 25.70799 | -80.58037 | 3963 ft | 252 kts | 328° |
| 2026-05-05 20:27 | 25.72434 | -80.58688 | 3964 ft | 247 kts | 352° |
| 2026-05-05 20:27 | 25.74125 | -80.58608 | 3964 ft | 239 kts | 12° |
| 2026-05-05 20:27 | 25.75686 | -80.58042 | 3962 ft | 231 kts | 23° |
| 2026-05-05 20:27 | 25.76984 | -80.57049 | 3958 ft | 224 kts | 50° |
| 2026-05-05 20:28 | 25.77614 | -80.55542 | 3899 ft | 215 kts | 78° |
| 2026-05-05 20:28 | 25.77629 | -80.53878 | 3651 ft | 214 kts | 95° |
| 2026-05-05 20:28 | 25.77540 | -80.52241 | 3411 ft | 212 kts | 88° |
| 2026-05-05 20:28 | 25.77642 | -80.50610 | 3224 ft | 207 kts | 83° |
| 2026-05-05 20:29 | 25.77795 | -80.49045 | 3061 ft | 202 kts | 83° |
| 2026-05-05 20:29 | 25.77863 | -80.47505 | 2904 ft | 199 kts | 90° |
| 2026-05-05 20:29 | 25.77818 | -80.45956 | 2611 ft | 203 kts | 89° |
| 2026-05-05 20:29 | 25.77859 | -80.44373 | 2326 ft | 204 kts | 85° |
| 2026-05-05 20:30 | 25.77970 | -80.42844 | 2060 ft | 192 kts | 83° |
| 2026-05-05 20:30 | 25.78089 | -80.41438 | 1812 ft | 178 kts | 83° |
| 2026-05-05 20:30 | 25.78200 | -80.40103 | 1579 ft | 168 kts | 84° |
| 2026-05-05 20:30 | 25.78273 | -80.38838 | 1357 ft | 157 kts | 85° |
| 2026-05-05 20:31 | 25.78329 | -80.37668 | 1158 ft | 144 kts | 86° |
| 2026-05-05 20:31 | 25.78383 | -80.36576 | 967 ft | 139 kts | 86° |
| 2026-05-05 20:31 | 25.78431 | -80.35516 | 794 ft | 138 kts | 86° |
| 2026-05-05 20:31 | 25.78479 | -80.34450 | 615 ft | 137 kts | 86° |
| 2026-05-05 20:32 | 25.78525 | -80.33398 | 444 ft | 136 kts | 87° |
| 2026-05-05 20:32 | 25.78578 | -80.32345 | 255 ft | 136 kts | 87° |
| 2026-05-05 20:32 | 25.78622 | -80.31305 | 62 ft | 130 kts | 88° |
| 2026-05-05 20:32 | 25.78660 | -80.30386 | 14 ft | 101 kts | 88° |
| 2026-05-05 20:33 | 25.78683 | -80.29770 | 14 ft | 60 kts | 88° |
| 2026-05-05 20:33 | 25.78701 | -80.29339 | 14 ft | 51 kts | 87° |
| 2026-05-05 20:33 | 25.78717 | -80.28964 | 14 ft | 44 kts | 87° |
| 2026-05-05 20:33 | 25.78731 | -80.28636 | 14 ft | 40 kts | 87° |
| 2026-05-05 20:34 | 25.78741 | -80.28342 | 14 ft | 36 kts | 87° |
| 2026-05-05 20:34 | 25.78752 | -80.28095 | 14 ft | 33 kts | 87° |
| 2026-05-05 20:34 | 25.78763 | -80.27834 | 14 ft | 29 kts | 88° |
| 2026-05-05 20:34 | 25.78788 | -80.27677 | 14 ft | 12 kts | 41° |
| 2026-05-05 20:35 | 25.78851 | -80.27690 | 14 ft | 6 kts | 307° |
| 2026-05-05 20:35 | 25.78868 | -80.27722 | 14 ft | 3 kts | 298° |
| 2026-05-05 20:35 | 25.78872 | -80.27733 | 14 ft | 0 kts | 280° |
| 2026-05-05 20:35 | 25.78872 | -80.27734 | 14 ft | 0 kts | 280° |
| 2026-05-05 20:36 | 25.78876 | -80.27759 | 14 ft | 8 kts | 274° |
| 2026-05-05 20:36 | 25.78892 | -80.27834 | 14 ft | 10 kts | 298° |
| 2026-05-05 20:36 | 25.78926 | -80.27900 | 14 ft | 11 kts | 299° |
| 2026-05-05 20:36 | 25.78982 | -80.28009 | 14 ft | 20 kts | 299° |
| 2026-05-05 20:37 | 25.79053 | -80.28148 | 14 ft | 20 kts | 299° |
| 2026-05-05 20:37 | 25.79100 | -80.28213 | 14 ft | 7 kts | 355° |
| 2026-05-05 20:37 | 25.79146 | -80.28190 | 14 ft | 4 kts | 32° |
| 2026-05-05 20:37 | 25.79149 | -80.28188 | 14 ft | 0 kts | 32° |